sensor_id;sensor_type;location;lat;lon;timestamp;temperature;humidity
43143;DHT22;28750;59.842;17.584;2022-11-15T00:00:49;6.50;99.90
43143;DHT22;28750;59.842;17.584;2022-11-15T00:03:27;6.30;99.90
43143;DHT22;28750;59.842;17.584;2022-11-15T00:05:54;6.40;99.90
43143;DHT22;28750;59.842;17.584;2022-11-15T00:08:21;6.40;99.90
43143;DHT22;28750;59.842;17.584;2022-11-15T00:10:58;6.30;99.90
43143;DHT22;28750;59.842;17.584;2022-11-15T00:13:26;6.20;99.90
43143;DHT22;28750;59.842;17.584;2022-11-15T00:15:57;6.10;99.90
43143;DHT22;28750;59.842;17.584;2022-11-15T00:18:24;6.10;99.90
43143;DHT22;28750;59.842;17.584;2022-11-15T00:20:51;6.20;99.90
43143;DHT22;28750;59.842;17.584;2022-11-15T00:23:18;6.10;99.90
43143;DHT22;28750;59.842;17.584;2022-11-15T00:25:45;6.10;99.90
43143;DHT22;28750;59.842;17.584;2022-11-15T00:28:12;6.10;99.90
43143;DHT22;28750;59.842;17.584;2022-11-15T00:30:38;6.10;99.90
43143;DHT22;28750;59.842;17.584;2022-11-15T00:33:06;6.10;99.90
43143;DHT22;28750;59.842;17.584;2022-11-15T00:35:34;6.00;99.90
43143;DHT22;28750;59.842;17.584;2022-11-15T00:38:01;6.00;99.90
43143;DHT22;28750;59.842;17.584;2022-11-15T00:40:29;5.90;99.90
43143;DHT22;28750;59.842;17.584;2022-11-15T00:42:56;5.90;99.90
43143;DHT22;28750;59.842;17.584;2022-11-15T00:45:24;5.80;99.90
43143;DHT22;28750;59.842;17.584;2022-11-15T00:47:51;5.70;99.90
43143;DHT22;28750;59.842;17.584;2022-11-15T00:50:19;5.70;99.90
43143;DHT22;28750;59.842;17.584;2022-11-15T00:52:45;5.70;99.90
43143;DHT22;28750;59.842;17.584;2022-11-15T00:55:17;5.70;99.90
43143;DHT22;28750;59.842;17.584;2022-11-15T00:57:45;5.70;99.90
43143;DHT22;28750;59.842;17.584;2022-11-15T01:00:13;5.70;99.90
43143;DHT22;28750;59.842;17.584;2022-11-15T01:02:40;5.60;99.90
43143;DHT22;28750;59.842;17.584;2022-11-15T01:05:07;5.60;99.90
43143;DHT22;28750;59.842;17.584;2022-11-15T01:07:34;5.60;99.90
43143;DHT22;28750;59.842;17.584;2022-11-15T01:10:02;5.50;99.90
43143;DHT22;28750;59.842;17.584;2022-11-15T01:12:29;5.50;99.90
43143;DHT22;28750;59.842;17.584;2022-11-15T01:14:56;5.50;99.90
43143;DHT22;28750;59.842;17.584;2022-11-15T01:17:23;5.50;99.90
43143;DHT22;28750;59.842;17.584;2022-11-15T01:19:50;5.50;99.90
43143;DHT22;28750;59.842;17.584;2022-11-15T01:22:17;5.50;99.90
43143;DHT22;28750;59.842;17.584;2022-11-15T01:24:44;5.40;99.90
43143;DHT22;28750;59.842;17.584;2022-11-15T01:27:11;5.40;99.90
43143;DHT22;28750;59.842;17.584;2022-11-15T01:29:38;5.40;99.90
43143;DHT22;28750;59.842;17.584;2022-11-15T01:32:05;5.40;99.90
43143;DHT22;28750;59.842;17.584;2022-11-15T01:34:32;5.40;99.90
43143;DHT22;28750;59.842;17.584;2022-11-15T01:36:59;5.30;99.90
43143;DHT22;28750;59.842;17.584;2022-11-15T01:39:26;5.30;99.90
43143;DHT22;28750;59.842;17.584;2022-11-15T01:41:53;5.30;99.90
43143;DHT22;28750;59.842;17.584;2022-11-15T01:44:41;5.30;99.90
43143;DHT22;28750;59.842;17.584;2022-11-15T01:47:21;5.40;99.90
43143;DHT22;28750;59.842;17.584;2022-11-15T01:50:02;5.30;99.90
43143;DHT22;28750;59.842;17.584;2022-11-15T01:52:31;5.30;99.90
43143;DHT22;28750;59.842;17.584;2022-11-15T01:55:14;5.30;99.90
43143;DHT22;28750;59.842;17.584;2022-11-15T01:57:43;5.30;99.90
43143;DHT22;28750;59.842;17.584;2022-11-15T02:00:13;5.30;99.90
43143;DHT22;28750;59.842;17.584;2022-11-15T02:02:40;5.20;99.90
43143;DHT22;28750;59.842;17.584;2022-11-15T02:05:07;5.20;99.90
43143;DHT22;28750;59.842;17.584;2022-11-15T02:07:35;5.20;99.90
43143;DHT22;28750;59.842;17.584;2022-11-15T02:10:08;5.10;99.90
43143;DHT22;28750;59.842;17.584;2022-11-15T02:12:35;5.00;99.90
43143;DHT22;28750;59.842;17.584;2022-11-15T02:15:05;5.00;99.90
43143;DHT22;28750;59.842;17.584;2022-11-15T02:39:28;4.80;99.90
43143;DHT22;28750;59.842;17.584;2022-11-15T02:42:06;4.90;99.90
43143;DHT22;28750;59.842;17.584;2022-11-15T02:44:56;4.90;99.90
43143;DHT22;28750;59.842;17.584;2022-11-15T02:47:24;4.80;99.90
43143;DHT22;28750;59.842;17.584;2022-11-15T02:49:56;4.80;99.90
43143;DHT22;28750;59.842;17.584;2022-11-15T02:52:25;4.80;99.90
43143;DHT22;28750;59.842;17.584;2022-11-15T02:54:57;4.90;99.90
43143;DHT22;28750;59.842;17.584;2022-11-15T02:57:35;4.90;99.90
43143;DHT22;28750;59.842;17.584;2022-11-15T03:00:10;4.90;99.90
43143;DHT22;28750;59.842;17.584;2022-11-15T03:03:52;4.90;99.90
43143;DHT22;28750;59.842;17.584;2022-11-15T03:06:03;4.90;99.90
43143;DHT22;28750;59.842;17.584;2022-11-15T03:11:44;4.90;99.90
43143;DHT22;28750;59.842;17.584;2022-11-15T03:14:23;4.90;99.90
43143;DHT22;28750;59.842;17.584;2022-11-15T03:16:58;4.90;99.90
43143;DHT22;28750;59.842;17.584;2022-11-15T03:19:37;4.90;99.90
43143;DHT22;28750;59.842;17.584;2022-11-15T03:22:09;4.90;99.90
43143;DHT22;28750;59.842;17.584;2022-11-15T03:24:38;5.00;99.90
43143;DHT22;28750;59.842;17.584;2022-11-15T03:27:07;5.00;99.90
43143;DHT22;28750;59.842;17.584;2022-11-15T03:29:39;4.90;99.90
43143;DHT22;28750;59.842;17.584;2022-11-15T03:32:24;4.90;99.90
43143;DHT22;28750;59.842;17.584;2022-11-15T03:37:27;4.90;99.90
43143;DHT22;28750;59.842;17.584;2022-11-15T03:39:55;4.90;99.90
43143;DHT22;28750;59.842;17.584;2022-11-15T03:42:42;4.90;99.90
43143;DHT22;28750;59.842;17.584;2022-11-15T03:47:43;4.90;99.90
43143;DHT22;28750;59.842;17.584;2022-11-15T03:50:14;4.90;99.90
43143;DHT22;28750;59.842;17.584;2022-11-15T03:52:48;4.90;99.90
43143;DHT22;28750;59.842;17.584;2022-11-15T03:55:20;5.00;99.90
43143;DHT22;28750;59.842;17.584;2022-11-15T03:57:50;5.00;99.90
43143;DHT22;28750;59.842;17.584;2022-11-15T04:00:18;5.00;99.90
43143;DHT22;28750;59.842;17.584;2022-11-15T04:02:45;5.00;99.90
43143;DHT22;28750;59.842;17.584;2022-11-15T04:05:12;5.00;99.90
43143;DHT22;28750;59.842;17.584;2022-11-15T04:07:39;5.00;99.90
43143;DHT22;28750;59.842;17.584;2022-11-15T04:10:06;5.10;99.90
43143;DHT22;28750;59.842;17.584;2022-11-15T04:12:35;5.10;99.90
43143;DHT22;28750;59.842;17.584;2022-11-15T04:15:06;5.10;99.90
43143;DHT22;28750;59.842;17.584;2022-11-15T04:17:45;5.10;99.90
43143;DHT22;28750;59.842;17.584;2022-11-15T04:20:25;5.10;99.90
43143;DHT22;28750;59.842;17.584;2022-11-15T04:23:12;5.10;99.90
43143;DHT22;28750;59.842;17.584;2022-11-15T04:25:59;5.10;99.90
43143;DHT22;28750;59.842;17.584;2022-11-15T04:28:27;5.10;99.90
43143;DHT22;28750;59.842;17.584;2022-11-15T04:30:54;5.10;99.90
43143;DHT22;28750;59.842;17.584;2022-11-15T04:33:22;5.10;99.90
43143;DHT22;28750;59.842;17.584;2022-11-15T04:35:49;5.20;99.90
43143;DHT22;28750;59.842;17.584;2022-11-15T04:38:30;5.10;99.90
43143;DHT22;28750;59.842;17.584;2022-11-15T04:40:57;5.20;99.90
43143;DHT22;28750;59.842;17.584;2022-11-15T04:43:24;5.20;99.90
43143;DHT22;28750;59.842;17.584;2022-11-15T04:45:51;5.20;99.90
43143;DHT22;28750;59.842;17.584;2022-11-15T04:48:18;5.30;99.90
43143;DHT22;28750;59.842;17.584;2022-11-15T04:50:47;5.30;99.90
43143;DHT22;28750;59.842;17.584;2022-11-15T04:53:14;5.30;99.90
43143;DHT22;28750;59.842;17.584;2022-11-15T04:55:45;5.30;99.90
43143;DHT22;28750;59.842;17.584;2022-11-15T04:58:12;5.40;99.90
43143;DHT22;28750;59.842;17.584;2022-11-15T05:00:39;5.40;99.90
43143;DHT22;28750;59.842;17.584;2022-11-15T05:03:06;5.40;99.90
43143;DHT22;28750;59.842;17.584;2022-11-15T05:05:50;5.40;99.90
43143;DHT22;28750;59.842;17.584;2022-11-15T05:08:17;5.40;99.90
43143;DHT22;28750;59.842;17.584;2022-11-15T05:10:44;5.40;99.90
43143;DHT22;28750;59.842;17.584;2022-11-15T05:13:11;5.50;99.90
43143;DHT22;28750;59.842;17.584;2022-11-15T05:15:38;5.50;99.90
43143;DHT22;28750;59.842;17.584;2022-11-15T05:18:05;5.60;99.90
43143;DHT22;28750;59.842;17.584;2022-11-15T05:20:32;5.50;99.90
43143;DHT22;28750;59.842;17.584;2022-11-15T05:22:59;5.50;99.90
43143;DHT22;28750;59.842;17.584;2022-11-15T05:25:26;5.60;99.90
43143;DHT22;28750;59.842;17.584;2022-11-15T05:27:54;5.60;99.90
43143;DHT22;28750;59.842;17.584;2022-11-15T05:30:21;5.60;99.90
43143;DHT22;28750;59.842;17.584;2022-11-15T05:32:48;5.70;99.90
43143;DHT22;28750;59.842;17.584;2022-11-15T05:35:27;5.70;99.90
43143;DHT22;28750;59.842;17.584;2022-11-15T05:37:56;5.70;99.90
43143;DHT22;28750;59.842;17.584;2022-11-15T05:40:24;5.70;99.90
43143;DHT22;28750;59.842;17.584;2022-11-15T05:42:51;5.80;99.90
43143;DHT22;28750;59.842;17.584;2022-11-15T05:45:18;5.80;99.90
43143;DHT22;28750;59.842;17.584;2022-11-15T05:47:45;5.90;99.90
43143;DHT22;28750;59.842;17.584;2022-11-15T05:50:15;5.90;99.90
43143;DHT22;28750;59.842;17.584;2022-11-15T05:52:44;5.90;99.90
43143;DHT22;28750;59.842;17.584;2022-11-15T05:55:12;5.90;99.90
43143;DHT22;28750;59.842;17.584;2022-11-15T05:57:39;5.90;99.90
43143;DHT22;28750;59.842;17.584;2022-11-15T06:00:07;5.90;99.90
43143;DHT22;28750;59.842;17.584;2022-11-15T06:02:35;5.90;99.90
43143;DHT22;28750;59.842;17.584;2022-11-15T06:05:02;5.90;99.90
43143;DHT22;28750;59.842;17.584;2022-11-15T06:07:30;5.80;99.90
43143;DHT22;28750;59.842;17.584;2022-11-15T06:09:57;5.80;99.90
43143;DHT22;28750;59.842;17.584;2022-11-15T06:12:24;5.80;99.90
43143;DHT22;28750;59.842;17.584;2022-11-15T06:14:51;5.80;99.90
43143;DHT22;28750;59.842;17.584;2022-11-15T06:17:17;5.80;99.90
43143;DHT22;28750;59.842;17.584;2022-11-15T06:19:44;5.80;99.90
43143;DHT22;28750;59.842;17.584;2022-11-15T06:22:11;5.80;99.90
43143;DHT22;28750;59.842;17.584;2022-11-15T06:24:38;5.70;99.90
43143;DHT22;28750;59.842;17.584;2022-11-15T06:27:05;5.80;99.90
43143;DHT22;28750;59.842;17.584;2022-11-15T06:29:32;5.70;99.90
43143;DHT22;28750;59.842;17.584;2022-11-15T06:31:59;5.70;99.90
43143;DHT22;28750;59.842;17.584;2022-11-15T06:34:26;5.70;99.90
43143;DHT22;28750;59.842;17.584;2022-11-15T06:36:53;5.70;99.90
43143;DHT22;28750;59.842;17.584;2022-11-15T06:39:20;5.60;99.90
43143;DHT22;28750;59.842;17.584;2022-11-15T06:41:47;5.70;99.90
43143;DHT22;28750;59.842;17.584;2022-11-15T06:44:14;5.70;99.90
43143;DHT22;28750;59.842;17.584;2022-11-15T06:46:41;5.60;99.90
43143;DHT22;28750;59.842;17.584;2022-11-15T06:49:08;5.60;99.90
43143;DHT22;28750;59.842;17.584;2022-11-15T06:51:36;5.60;99.90
43143;DHT22;28750;59.842;17.584;2022-11-15T06:54:03;5.60;99.90
43143;DHT22;28750;59.842;17.584;2022-11-15T06:56:30;5.60;99.90
43143;DHT22;28750;59.842;17.584;2022-11-15T06:58:57;5.50;99.90
43143;DHT22;28750;59.842;17.584;2022-11-15T07:01:24;5.50;99.90
43143;DHT22;28750;59.842;17.584;2022-11-15T07:03:51;5.40;99.90
43143;DHT22;28750;59.842;17.584;2022-11-15T07:06:18;5.40;99.90
43143;DHT22;28750;59.842;17.584;2022-11-15T07:08:45;5.40;99.90
43143;DHT22;28750;59.842;17.584;2022-11-15T07:11:12;5.30;99.90
43143;DHT22;28750;59.842;17.584;2022-11-15T07:13:39;5.30;99.90
43143;DHT22;28750;59.842;17.584;2022-11-15T07:16:08;5.30;99.90
43143;DHT22;28750;59.842;17.584;2022-11-15T07:18:37;5.30;99.90
43143;DHT22;28750;59.842;17.584;2022-11-15T07:21:05;5.40;99.90
43143;DHT22;28750;59.842;17.584;2022-11-15T07:23:35;5.40;99.90
43143;DHT22;28750;59.842;17.584;2022-11-15T07:26:02;5.50;99.90
43143;DHT22;28750;59.842;17.584;2022-11-15T07:28:29;5.40;99.90
43143;DHT22;28750;59.842;17.584;2022-11-15T07:30:56;5.40;99.90
43143;DHT22;28750;59.842;17.584;2022-11-15T07:33:23;5.40;99.90
43143;DHT22;28750;59.842;17.584;2022-11-15T07:35:50;5.40;99.90
43143;DHT22;28750;59.842;17.584;2022-11-15T07:38:17;5.40;99.90
43143;DHT22;28750;59.842;17.584;2022-11-15T07:40:46;5.50;99.90
43143;DHT22;28750;59.842;17.584;2022-11-15T07:43:13;5.50;99.90
43143;DHT22;28750;59.842;17.584;2022-11-15T07:45:44;5.50;99.90
43143;DHT22;28750;59.842;17.584;2022-11-15T07:48:11;5.50;99.90
43143;DHT22;28750;59.842;17.584;2022-11-15T07:50:42;5.50;99.90
43143;DHT22;28750;59.842;17.584;2022-11-15T07:53:10;5.40;99.90
43143;DHT22;28750;59.842;17.584;2022-11-15T07:55:39;5.40;99.90
43143;DHT22;28750;59.842;17.584;2022-11-15T07:58:08;5.50;99.90
43143;DHT22;28750;59.842;17.584;2022-11-15T08:00:36;5.60;99.90
43143;DHT22;28750;59.842;17.584;2022-11-15T08:03:09;5.60;99.90
43143;DHT22;28750;59.842;17.584;2022-11-15T08:05:37;5.60;99.90
43143;DHT22;28750;59.842;17.584;2022-11-15T08:08:06;5.70;99.90
43143;DHT22;28750;59.842;17.584;2022-11-15T08:10:33;5.70;99.90
43143;DHT22;28750;59.842;17.584;2022-11-15T08:13:05;5.70;99.90
43143;DHT22;28750;59.842;17.584;2022-11-15T08:15:33;5.70;99.90
43143;DHT22;28750;59.842;17.584;2022-11-15T08:18:03;5.80;99.90
43143;DHT22;28750;59.842;17.584;2022-11-15T08:20:31;5.80;99.90
43143;DHT22;28750;59.842;17.584;2022-11-15T08:23:01;5.80;99.90
43143;DHT22;28750;59.842;17.584;2022-11-15T08:25:30;5.80;99.90
43143;DHT22;28750;59.842;17.584;2022-11-15T08:28:00;5.80;99.90
43143;DHT22;28750;59.842;17.584;2022-11-15T08:30:29;5.80;99.90
43143;DHT22;28750;59.842;17.584;2022-11-15T08:32:57;5.90;99.90
43143;DHT22;28750;59.842;17.584;2022-11-15T08:35:25;5.90;99.90
43143;DHT22;28750;59.842;17.584;2022-11-15T08:37:53;5.80;99.90
43143;DHT22;28750;59.842;17.584;2022-11-15T08:40:20;5.90;99.90
43143;DHT22;28750;59.842;17.584;2022-11-15T08:42:48;5.90;99.90
43143;DHT22;28750;59.842;17.584;2022-11-15T08:45:15;6.00;99.90
43143;DHT22;28750;59.842;17.584;2022-11-15T08:47:42;6.00;99.90
43143;DHT22;28750;59.842;17.584;2022-11-15T08:50:09;6.10;99.90
43143;DHT22;28750;59.842;17.584;2022-11-15T08:52:36;6.00;99.90
43143;DHT22;28750;59.842;17.584;2022-11-15T08:55:03;6.10;99.90
43143;DHT22;28750;59.842;17.584;2022-11-15T08:57:30;6.10;99.90
43143;DHT22;28750;59.842;17.584;2022-11-15T08:59:57;6.10;99.90
43143;DHT22;28750;59.842;17.584;2022-11-15T09:02:24;6.10;99.90
43143;DHT22;28750;59.842;17.584;2022-11-15T09:04:51;6.10;99.90
43143;DHT22;28750;59.842;17.584;2022-11-15T09:07:18;6.00;99.90
43143;DHT22;28750;59.842;17.584;2022-11-15T09:09:45;6.00;99.90
43143;DHT22;28750;59.842;17.584;2022-11-15T09:12:12;6.10;99.90
43143;DHT22;28750;59.842;17.584;2022-11-15T09:14:39;6.10;99.90
43143;DHT22;28750;59.842;17.584;2022-11-15T09:17:09;6.10;99.90
43143;DHT22;28750;59.842;17.584;2022-11-15T09:19:35;6.00;99.90
43143;DHT22;28750;59.842;17.584;2022-11-15T09:22:06;6.00;99.90
43143;DHT22;28750;59.842;17.584;2022-11-15T09:24:33;6.10;99.90
43143;DHT22;28750;59.842;17.584;2022-11-15T09:27:00;6.10;99.90
43143;DHT22;28750;59.842;17.584;2022-11-15T09:29:27;6.00;99.90
43143;DHT22;28750;59.842;17.584;2022-11-15T09:31:54;6.10;99.90
43143;DHT22;28750;59.842;17.584;2022-11-15T09:34:21;6.10;99.90
43143;DHT22;28750;59.842;17.584;2022-11-15T09:36:48;6.10;99.90
43143;DHT22;28750;59.842;17.584;2022-11-15T09:39:15;6.20;99.90
43143;DHT22;28750;59.842;17.584;2022-11-15T09:50:17;6.40;33.60
43143;DHT22;28750;59.842;17.584;2022-11-15T09:52:46;6.40;5.40
43143;DHT22;28750;59.842;17.584;2022-11-15T09:55:15;6.50;1.00
43143;DHT22;28750;59.842;17.584;2022-11-15T09:57:59;6.40;99.90
43143;DHT22;28750;59.842;17.584;2022-11-15T10:00:40;6.30;99.90
43143;DHT22;28750;59.842;17.584;2022-11-15T10:03:13;6.40;99.90
43143;DHT22;28750;59.842;17.584;2022-11-15T10:05:43;6.40;99.90
43143;DHT22;28750;59.842;17.584;2022-11-15T10:11:08;6.40;99.90
43143;DHT22;28750;59.842;17.584;2022-11-15T10:13:40;6.40;37.10
43143;DHT22;28750;59.842;17.584;2022-11-15T10:22:00;6.50;1.00
43143;DHT22;28750;59.842;17.584;2022-11-15T10:24:31;6.60;99.90
43143;DHT22;28750;59.842;17.584;2022-11-15T10:27:00;6.50;1.00
43143;DHT22;28750;59.842;17.584;2022-11-15T10:29:27;6.60;63.40
43143;DHT22;28750;59.842;17.584;2022-11-15T10:31:54;6.50;1.00
43143;DHT22;28750;59.842;17.584;2022-11-15T10:34:23;6.50;1.00
43143;DHT22;28750;59.842;17.584;2022-11-15T10:37:00;6.50;99.90
43143;DHT22;28750;59.842;17.584;2022-11-15T10:39:27;6.50;99.90
43143;DHT22;28750;59.842;17.584;2022-11-15T10:41:55;6.50;1.00
43143;DHT22;28750;59.842;17.584;2022-11-15T10:44:28;6.50;1.00
43143;DHT22;28750;59.842;17.584;2022-11-15T10:51:52;6.60;99.90
43143;DHT22;28750;59.842;17.584;2022-11-15T10:54:40;6.60;40.20
43143;DHT22;28750;59.842;17.584;2022-11-15T10:57:14;6.60;2.30
43143;DHT22;28750;59.842;17.584;2022-11-15T10:59:47;6.60;99.90
43143;DHT22;28750;59.842;17.584;2022-11-15T11:02:34;6.60;99.90
43143;DHT22;28750;59.842;17.584;2022-11-15T11:05:04;6.70;99.90
43143;DHT22;28750;59.842;17.584;2022-11-15T11:07:33;6.70;99.90
43143;DHT22;28750;59.842;17.584;2022-11-15T11:10:20;6.70;99.90
43143;DHT22;28750;59.842;17.584;2022-11-15T11:12:47;6.60;1.00
43143;DHT22;28750;59.842;17.584;2022-11-15T11:15:15;6.70;99.90
43143;DHT22;28750;59.842;17.584;2022-11-15T11:31:35;6.70;99.90
43143;DHT22;28750;59.842;17.584;2022-11-15T11:34:20;6.70;99.90
43143;DHT22;28750;59.842;17.584;2022-11-15T11:50:32;6.60;1.00
43143;DHT22;28750;59.842;17.584;2022-11-15T11:53:26;6.60;1.00
43143;DHT22;28750;59.842;17.584;2022-11-15T11:55:57;6.60;1.00
43143;DHT22;28750;59.842;17.584;2022-11-15T12:00:57;6.60;99.90
43143;DHT22;28750;59.842;17.584;2022-11-15T12:06:01;6.60;99.90
43143;DHT22;28750;59.842;17.584;2022-11-15T12:08:46;6.60;99.90
43143;DHT22;28750;59.842;17.584;2022-11-15T12:11:52;6.60;1.00
43143;DHT22;28750;59.842;17.584;2022-11-15T12:17:29;6.50;99.90
43143;DHT22;28750;59.842;17.584;2022-11-15T12:19:57;6.50;99.90
43143;DHT22;28750;59.842;17.584;2022-11-15T12:22:39;6.50;99.90
43143;DHT22;28750;59.842;17.584;2022-11-15T12:25:18;6.50;99.90
43143;DHT22;28750;59.842;17.584;2022-11-15T12:31:04;6.50;99.90
43143;DHT22;28750;59.842;17.584;2022-11-15T12:33:39;6.50;99.90
43143;DHT22;28750;59.842;17.584;2022-11-15T12:39:00;6.50;99.90
43143;DHT22;28750;59.842;17.584;2022-11-15T12:41:37;6.40;99.90
43143;DHT22;28750;59.842;17.584;2022-11-15T12:44:22;6.40;99.90
43143;DHT22;28750;59.842;17.584;2022-11-15T12:59:58;6.30;99.90
43143;DHT22;28750;59.842;17.584;2022-11-15T13:17:46;6.20;99.90
43143;DHT22;28750;59.842;17.584;2022-11-15T13:23:12;6.10;99.90
43143;DHT22;28750;59.842;17.584;2022-11-15T13:26:12;6.10;99.90
43143;DHT22;28750;59.842;17.584;2022-11-15T13:28:45;6.10;99.90
43143;DHT22;28750;59.842;17.584;2022-11-15T13:36:48;6.10;99.90
43143;DHT22;28750;59.842;17.584;2022-11-15T13:39:30;6.00;99.90
43143;DHT22;28750;59.842;17.584;2022-11-15T13:41:57;6.10;99.90
43143;DHT22;28750;59.842;17.584;2022-11-15T13:44:30;6.10;99.90
43143;DHT22;28750;59.842;17.584;2022-11-15T13:49:31;5.90;99.90
43143;DHT22;28750;59.842;17.584;2022-11-15T13:51:59;6.00;99.90
43143;DHT22;28750;59.842;17.584;2022-11-15T13:54:30;5.90;99.90
43143;DHT22;28750;59.842;17.584;2022-11-15T13:57:12;5.90;99.90
43143;DHT22;28750;59.842;17.584;2022-11-15T13:59:54;6.00;99.90
43143;DHT22;28750;59.842;17.584;2022-11-15T14:02:26;6.00;99.90
43143;DHT22;28750;59.842;17.584;2022-11-15T14:05:14;5.90;99.90
43143;DHT22;28750;59.842;17.584;2022-11-15T14:07:53;5.90;99.90
43143;DHT22;28750;59.842;17.584;2022-11-15T14:10:29;5.90;99.90
43143;DHT22;28750;59.842;17.584;2022-11-15T14:12:57;5.90;1.00
43143;DHT22;28750;59.842;17.584;2022-11-15T14:15:34;5.80;99.90
43143;DHT22;28750;59.842;17.584;2022-11-15T14:18:03;5.80;99.90
43143;DHT22;28750;59.842;17.584;2022-11-15T14:20:35;5.80;99.90
43143;DHT22;28750;59.842;17.584;2022-11-15T14:23:05;5.80;99.90
43143;DHT22;28750;59.842;17.584;2022-11-15T14:25:54;5.70;99.90
43143;DHT22;28750;59.842;17.584;2022-11-15T14:30:53;5.80;99.90
43143;DHT22;28750;59.842;17.584;2022-11-15T14:33:37;5.70;99.90
43143;DHT22;28750;59.842;17.584;2022-11-15T14:36:06;5.70;99.90
43143;DHT22;28750;59.842;17.584;2022-11-15T14:38:33;5.70;99.90
43143;DHT22;28750;59.842;17.584;2022-11-15T14:41:02;5.70;99.90
43143;DHT22;28750;59.842;17.584;2022-11-15T14:43:29;5.70;99.90
43143;DHT22;28750;59.842;17.584;2022-11-15T14:45:56;5.70;99.90
43143;DHT22;28750;59.842;17.584;2022-11-15T14:48:23;5.70;99.90
43143;DHT22;28750;59.842;17.584;2022-11-15T14:50:50;5.70;1.00
43143;DHT22;28750;59.842;17.584;2022-11-15T14:53:18;5.70;1.00
43143;DHT22;28750;59.842;17.584;2022-11-15T14:55:46;5.70;1.00
43143;DHT22;28750;59.842;17.584;2022-11-15T14:58:13;5.70;1.00
43143;DHT22;28750;59.842;17.584;2022-11-15T15:00:41;5.70;1.00
43143;DHT22;28750;59.842;17.584;2022-11-15T15:03:08;5.70;1.00
43143;DHT22;28750;59.842;17.584;2022-11-15T15:05:40;5.60;8.20
43143;DHT22;28750;59.842;17.584;2022-11-15T15:08:08;5.70;19.10
43143;DHT22;28750;59.842;17.584;2022-11-15T15:10:39;5.70;91.80
43143;DHT22;28750;59.842;17.584;2022-11-15T15:13:22;5.60;99.90
43143;DHT22;28750;59.842;17.584;2022-11-15T15:15:51;5.70;99.90
43143;DHT22;28750;59.842;17.584;2022-11-15T15:18:19;5.60;99.90
43143;DHT22;28750;59.842;17.584;2022-11-15T15:20:54;5.60;99.90
43143;DHT22;28750;59.842;17.584;2022-11-15T15:23:22;5.50;99.90
43143;DHT22;28750;59.842;17.584;2022-11-15T15:25:51;5.50;99.90
43143;DHT22;28750;59.842;17.584;2022-11-15T15:28:18;5.50;99.90
43143;DHT22;28750;59.842;17.584;2022-11-15T15:30:45;5.50;99.90
43143;DHT22;28750;59.842;17.584;2022-11-15T15:33:12;5.50;99.90
43143;DHT22;28750;59.842;17.584;2022-11-15T15:35:39;5.50;99.90
43143;DHT22;28750;59.842;17.584;2022-11-15T15:38:08;5.60;99.90
43143;DHT22;28750;59.842;17.584;2022-11-15T15:40:35;5.50;99.90
43143;DHT22;28750;59.842;17.584;2022-11-15T15:43:02;5.50;99.90
43143;DHT22;28750;59.842;17.584;2022-11-15T15:45:30;5.50;99.90
43143;DHT22;28750;59.842;17.584;2022-11-15T15:47:58;5.50;99.90
43143;DHT22;28750;59.842;17.584;2022-11-15T15:50:31;5.50;99.90
43143;DHT22;28750;59.842;17.584;2022-11-15T15:53:01;5.50;99.90
43143;DHT22;28750;59.842;17.584;2022-11-15T15:55:28;5.60;99.90
43143;DHT22;28750;59.842;17.584;2022-11-15T15:57:55;5.60;99.90
43143;DHT22;28750;59.842;17.584;2022-11-15T16:00:24;5.60;99.90
43143;DHT22;28750;59.842;17.584;2022-11-15T16:02:52;5.60;99.90
43143;DHT22;28750;59.842;17.584;2022-11-15T16:05:19;5.60;99.90
43143;DHT22;28750;59.842;17.584;2022-11-15T16:07:46;5.60;99.90
43143;DHT22;28750;59.842;17.584;2022-11-15T16:10:22;5.60;99.90
43143;DHT22;28750;59.842;17.584;2022-11-15T16:12:50;5.50;99.90
43143;DHT22;28750;59.842;17.584;2022-11-15T16:15:19;5.50;99.90
43143;DHT22;28750;59.842;17.584;2022-11-15T16:17:57;5.50;99.90
43143;DHT22;28750;59.842;17.584;2022-11-15T16:20:31;5.60;99.90
43143;DHT22;28750;59.842;17.584;2022-11-15T16:22:59;5.50;99.90
43143;DHT22;28750;59.842;17.584;2022-11-15T16:25:26;5.50;99.90
43143;DHT22;28750;59.842;17.584;2022-11-15T16:27:53;5.60;99.90
43143;DHT22;28750;59.842;17.584;2022-11-15T16:30:22;5.60;99.90
43143;DHT22;28750;59.842;17.584;2022-11-15T16:32:50;5.60;99.90
43143;DHT22;28750;59.842;17.584;2022-11-15T16:35:17;5.60;51.90
43143;DHT22;28750;59.842;17.584;2022-11-15T16:37:44;5.60;23.00
43143;DHT22;28750;59.842;17.584;2022-11-15T16:42:51;5.50;99.90
43143;DHT22;28750;59.842;17.584;2022-11-15T16:45:18;5.50;99.90
43143;DHT22;28750;59.842;17.584;2022-11-15T16:47:45;5.50;99.90
43143;DHT22;28750;59.842;17.584;2022-11-15T16:50:26;5.50;99.90
43143;DHT22;28750;59.842;17.584;2022-11-15T16:52:58;5.50;99.90
43143;DHT22;28750;59.842;17.584;2022-11-15T16:55:27;5.60;99.90
43143;DHT22;28750;59.842;17.584;2022-11-15T16:57:56;5.60;99.90
43143;DHT22;28750;59.842;17.584;2022-11-15T17:00:24;5.50;99.90
43143;DHT22;28750;59.842;17.584;2022-11-15T17:02:52;5.50;99.90
43143;DHT22;28750;59.842;17.584;2022-11-15T17:05:22;5.50;62.80
43143;DHT22;28750;59.842;17.584;2022-11-15T17:07:50;5.50;99.90
43143;DHT22;28750;59.842;17.584;2022-11-15T17:10:19;5.50;80.00
43143;DHT22;28750;59.842;17.584;2022-11-15T17:12:47;5.50;44.80
43143;DHT22;28750;59.842;17.584;2022-11-15T17:15:14;5.50;1.00
43143;DHT22;28750;59.842;17.584;2022-11-15T17:17:41;5.50;99.90
43143;DHT22;28750;59.842;17.584;2022-11-15T17:20:16;5.50;99.90
43143;DHT22;28750;59.842;17.584;2022-11-15T17:22:43;5.50;99.90
43143;DHT22;28750;59.842;17.584;2022-11-15T17:25:12;5.50;1.00
43143;DHT22;28750;59.842;17.584;2022-11-15T17:27:39;5.40;99.90
43143;DHT22;28750;59.842;17.584;2022-11-15T17:30:07;5.50;99.90
43143;DHT22;28750;59.842;17.584;2022-11-15T17:32:37;5.50;99.90
43143;DHT22;28750;59.842;17.584;2022-11-15T17:35:05;5.50;99.90
43143;DHT22;28750;59.842;17.584;2022-11-15T17:37:33;5.50;99.90
43143;DHT22;28750;59.842;17.584;2022-11-15T17:40:00;5.40;99.90
43143;DHT22;28750;59.842;17.584;2022-11-15T17:42:27;5.40;99.90
43143;DHT22;28750;59.842;17.584;2022-11-15T17:44:54;5.40;99.90
43143;DHT22;28750;59.842;17.584;2022-11-15T17:47:21;5.50;97.70
43143;DHT22;28750;59.842;17.584;2022-11-15T17:49:48;5.40;99.90
43143;DHT22;28750;59.842;17.584;2022-11-15T17:52:15;5.30;99.90
43143;DHT22;28750;59.842;17.584;2022-11-15T17:54:42;5.40;99.90
43143;DHT22;28750;59.842;17.584;2022-11-15T17:57:09;5.40;1.00
43143;DHT22;28750;59.842;17.584;2022-11-15T17:59:36;5.40;1.00
43143;DHT22;28750;59.842;17.584;2022-11-15T18:02:03;5.40;1.00
43143;DHT22;28750;59.842;17.584;2022-11-15T18:04:30;5.40;1.00
43143;DHT22;28750;59.842;17.584;2022-11-15T18:06:57;5.40;1.00
43143;DHT22;28750;59.842;17.584;2022-11-15T18:09:24;5.40;2.30